Covington, VA (24426)

2:34 PM EDT on July 25, 2016 (GMT -0400)
Rich Patch Rd between Bensrun Rd and blue Spring Run Rd | | Change Station

Elev 1604 ft 37.68 °N, 80.07 °W | Updated 3 minutes ago

Mostly Cloudy
Mostly Cloudy
99.7 °F
Feels Like 124 °F
N
2.2
Wind Variable Wind from South

Today
High -- | Low -- °F
--% Chance of Precip.
Yesterday
High -- | Low -- °F
Precip. -- in
Pressure 30.12 in
Visibility 10.0 miles
Clouds Scattered Clouds 2600 ft
Scattered Clouds 3600 ft
Mostly Cloudy 10000 ft
Heat Index 124 °F
Dew Point 81 °F
Humidity 56%
Rainfall 0.00 in
Snow Depth Not available.
6:18 AM 8:34 PM
Waning Gibbous, 63% visible
METAR KLWB 251815Z AUTO 25007KT 10SM SCT026 SCT036 BKN100 26/19 A3012 RMK AO2 T02590193
Pressure 30.12 in
Visibility 10.0 miles
Clouds Scattered Clouds 2600 ft
Scattered Clouds 3600 ft
Mostly Cloudy 10000 ft
Heat Index 124 °F
Dew Point 81 °F
Humidity 56%
Rainfall 0.00 in
Snow Depth Not available.
6:18 AM 8:34 PM
Waning Gibbous, 63% visible
METAR KLWB 251815Z AUTO 25007KT 10SM SCT026 SCT036 BKN100 26/19 A3012 RMK AO2 T02590193
Record highs are possible for parts of the Northeast Monday and Tuesday, as parts of the central U.S. take a little breather from the worst of summer's dog day heat.

Expansive high pressure in the upper atmosphere will focus on parts of the East and West this week, sending heat indices well into the triple digits from the Mid-Atlantic states into the South.

10-Day Weather Forecast

Almanac

Astronomy

Jul. 25, 2016 Rise Set
Actual Time
Civil Twilight
Nautical Twilight
Astronomical Twilight
Moon
Length of Visible Light
Length of Day
Tomorrow will be .
, % of the Moon is Illuminated

Today's Extremes

State Highs State Lows

Community

WunderPhotos

Upload Photos

1,927,368 photos uploaded!

WunderBlog® & News

Nearby

Air Quality

  Air Quality AQ Index Pollutant
Not available.

Snow Depth

Station Depth Elevation

Earthquake Activity

City Distance Mag. Time & Date
Minimum magnitude displayed is 2.5.

Coastal Water Temperatures

Place Temperature

Stations

Nearby Weather Stations

Station Location Temp. Windchill Dew Point Humidity Wind Precip. Elev Updated Type
                   

Watches & Warnings

There are currently no watches in effect.